Barkley Observed Data For Previous 48 Hours

Caption
Day and Hour Reservoir Elevation (behind dam)* Tailwater Elevation (below dam)* Average Hourly Discharge*
7/17/2019 1 AM CDT 359.50 314.40 30,900
7/17/2019 2 AM CDT 359.50 314.40 30,900
7/17/2019 3 AM CDT 359.50 314.50 30,900
7/17/2019 4 AM CDT 359.50 314.50 30,900
7/17/2019 5 AM CDT 359.50 314.50 30,900
7/17/2019 6 AM CDT 359.50 314.50 30,600
7/17/2019 7 AM CDT 359.45 314.55 30,900
7/17/2019 8 AM CDT 359.50 313.80 20,400
7/17/2019 9 AM CDT 359.50 313.40 20,000
7/17/2019 10 AM CDT 359.50 313.20 20,000
7/17/2019 11 AM CDT 359.50 313.10 20,000
7/17/2019 12 PM CDT 359.50 313.00 20,000
7/17/2019 1 PM CDT 359.50 312.90 19,800
7/17/2019 2 PM CDT 359.50 312.80 18,400
7/17/2019 3 PM CDT 359.50 312.70 18,300
7/17/2019 4 PM CDT 359.50 312.70 18,300
7/17/2019 5 PM CDT 359.50 312.70 18,100
7/17/2019 6 PM CDT 359.45 313.25 25,200
7/17/2019 7 PM CDT 359.50 312.70 20,300
7/17/2019 8 PM CDT 359.50 312.50 17,200
7/17/2019 9 PM CDT 359.40 312.20 16,900
7/17/2019 10 PM CDT 359.40 312.10 17,200
7/17/2019 11 PM CDT 359.40 312.10 18,200
7/18/2019 12 AM CDT 359.40 312.40 18,900
7/18/2019 1 AM CDT 359.40 312.30 19,600
7/18/2019 2 AM CDT 359.40 312.30 19,400
7/18/2019 3 AM CDT 359.40 312.20 19,300
7/18/2019 4 AM CDT 359.40 312.10 19,300
7/18/2019 5 AM CDT 359.45 312.05 19,600
7/18/2019 6 AM CDT 359.45 312.05 19,300
7/18/2019 7 AM CDT 359.45 311.95 19,600
7/18/2019 8 AM CDT 359.45 311.95 19,600
7/18/2019 9 AM CDT 359.45 311.85 19,400
7/18/2019 10 AM CDT 359.45 311.85 19,400
7/18/2019 11 AM CDT 359.50 311.80 19,400
7/18/2019 12 PM CDT 359.50 311.80 19,400
7/18/2019 1 PM CDT 359.50 311.70 19,400
7/18/2019 2 PM CDT 359.50 311.60 19,400
7/18/2019 3 PM CDT 359.50 311.60 19,400
7/18/2019 4 PM CDT 359.50 311.50 19,400
7/18/2019 5 PM CDT 359.50 311.50 19,400
7/18/2019 6 PM CDT 359.50 311.60 19,400
7/18/2019 7 PM CDT 359.50 311.50 19,400
7/18/2019 8 PM CDT 359.50 311.50 19,400
7/18/2019 9 PM CDT 359.50 311.50 19,400
7/18/2019 10 PM CDT 359.50 311.50 19,600
7/18/2019 11 PM CDT 359.50 311.50 19,400
7/19/2019 12 AM CDT 359.50 311.50 19,600

Elevations are in feet above sea level. Discharges are in cubic feet per second and are reported at the end of the hour.